KDTN/DTN METAR and TAF weather

Enter ICAO airport designator
Station Type Date Time Source
KDTN METAR 2020/06/06 12:53 UTC NOAA

KDTN 061253Z 02003KT 10SM CLR 25/21 A2993 RMK AO2 SLP133 T02500206


Station Type Date Time Source
KDTN Decoded METAR 2020/06/06 12:53 UTC NOAA

SHREVEPORT DOWNTOWN AIRPORT, LA, United States (KDTN) 32-32N 093-45W 53M
Jun 06, 2020 - 08:53 AM EDT / 2020.06.06 1253 UTC
Wind: from the NNE (020 degrees) at 3 MPH (3 KT):0
Visibility: 10 mile(s):0
Sky conditions: clear
Temperature: 77.0 F (25.0 C)
Dew Point: 69.1 F (20.6 C)
Relative Humidity: 76%
Pressure (altimeter): 29.93 in. Hg (1013 hPa)
ob: KDTN 061253Z 02003KT 10SM CLR 25/21 A2993 RMK AO2 SLP133 T02500206
cycle: 13

Station Type Date Time Source
KDTN TAF UTC NOAA

Error!

Example: see airport list